createdAt,value
2022-10-09T00:00:24.677Z,5.53
2022-10-09T00:01:12.951Z,5.90
2022-10-09T00:01:54.671Z,5.97
2022-10-09T00:02:36.496Z,5.93
2022-10-09T00:03:18.371Z,5.63
2022-10-09T00:04:00.425Z,5.65
2022-10-09T00:04:42.066Z,5.30
2022-10-09T00:05:26.761Z,5.70
2022-10-09T00:06:10.565Z,5.07
2022-10-09T00:06:52.183Z,5.65
2022-10-09T00:07:33.877Z,5.35
2022-10-09T00:08:15.558Z,5.50
2022-10-09T00:08:58.333Z,6.40
2022-10-09T00:09:39.994Z,5.80
2022-10-09T00:10:21.922Z,5.50
2022-10-09T00:11:07.873Z,5.40
2022-10-09T00:11:49.494Z,5.97
2022-10-09T00:12:31.119Z,6.30
2022-10-09T00:13:13.120Z,5.68
2022-10-09T00:13:55.739Z,5.60
2022-10-09T00:14:37.386Z,5.65
2022-10-09T00:15:19.136Z,5.90
2022-10-09T00:16:04.362Z,5.78
2022-10-09T00:16:46.046Z,6.05
2022-10-09T00:17:27.710Z,6.20
2022-10-09T00:18:11.917Z,5.97
2022-10-09T00:18:54.641Z,5.53
2022-10-09T00:19:36.270Z,6.05
2022-10-09T00:20:17.973Z,6.10
2022-10-09T00:20:59.683Z,6.30
2022-10-09T00:21:41.334Z,6.15
2022-10-09T00:22:22.966Z,5.45
2022-10-09T00:23:05.228Z,6.00
2022-10-09T00:23:47.468Z,6.50
2022-10-09T00:24:29.107Z,7.25
2022-10-09T00:25:10.749Z,6.68
2022-10-09T00:26:11.893Z,5.57
2022-10-09T00:26:53.548Z,5.65
2022-10-09T00:27:35.241Z,6.00
2022-10-09T00:28:16.920Z,5.78
2022-10-09T00:28:58.778Z,5.65
2022-10-09T00:29:40.584Z,6.40
2022-10-09T00:30:22.223Z,5.88
2022-10-09T00:31:08.681Z,5.30
2022-10-09T00:31:50.881Z,5.72
2022-10-09T00:32:32.560Z,5.93
2022-10-09T00:33:14.467Z,6.32
2022-10-09T00:33:56.190Z,6.10
2022-10-09T00:34:37.816Z,5.50
2022-10-09T00:35:19.890Z,6.22
2022-10-09T00:36:22.137Z,6.32
2022-10-09T00:37:03.751Z,5.85
2022-10-09T00:37:45.466Z,5.80
2022-10-09T00:38:28.167Z,5.68
2022-10-09T00:39:09.807Z,5.88
2022-10-09T00:39:51.447Z,6.50
2022-10-09T00:40:34.196Z,6.30
2022-10-09T00:41:22.350Z,6.00
2022-10-09T00:42:04.721Z,5.90
2022-10-09T00:42:46.585Z,5.70
2022-10-09T00:43:43.810Z,5.50
2022-10-09T00:44:46.961Z,5.30
2022-10-09T00:45:29.344Z,6.18
2022-10-09T00:46:39.593Z,5.75
2022-10-09T00:47:38.367Z,5.90
2022-10-09T00:48:20.584Z,6.68
2022-10-09T00:49:08.070Z,6.13
2022-10-09T00:49:52.926Z,5.20
2022-10-09T00:50:46.018Z,5.65
2022-10-09T00:51:29.419Z,5.63
2022-10-09T00:52:11.562Z,5.80
2022-10-09T00:52:59.283Z,6.20
2022-10-09T00:53:41.330Z,6.60
2022-10-09T00:54:27.529Z,5.97
2022-10-09T00:55:09.894Z,5.50
2022-10-09T00:55:52.358Z,5.43
2022-10-09T00:56:35.203Z,5.80
2022-10-09T00:57:17.050Z,5.30
2022-10-09T00:58:00.521Z,5.75
2022-10-09T00:58:42.246Z,6.00
2022-10-09T00:59:24.864Z,6.30
2022-10-09T01:00:10.580Z,6.45
2022-10-09T01:00:52.791Z,6.40
2022-10-09T01:01:34.540Z,6.38
2022-10-09T01:02:16.274Z,6.35
2022-10-09T01:02:58.025Z,6.28
2022-10-09T01:03:40.274Z,6.00
2022-10-09T01:04:22.052Z,5.82
2022-10-09T01:05:04.846Z,5.70
2022-10-09T01:06:04.359Z,5.97
2022-10-09T01:07:04.881Z,5.80
2022-10-09T01:07:59.449Z,6.97
2022-10-09T01:08:54.534Z,6.50
2022-10-09T01:09:47.009Z,6.40
2022-10-09T01:10:32.582Z,6.55
2022-10-09T01:11:29.766Z,5.60
2022-10-09T01:12:21.601Z,5.50
2022-10-09T01:13:11.585Z,6.53
2022-10-09T01:14:01.190Z,6.20
2022-10-09T01:14:59.147Z,6.65
2022-10-09T01:15:56.404Z,6.40
2022-10-09T01:16:45.013Z,6.13
2022-10-09T01:17:38.366Z,5.90
2022-10-09T01:18:31.825Z,6.35
2022-10-09T01:19:44.365Z,6.40
2022-10-09T01:20:31.948Z,6.10
2022-10-09T01:21:20.945Z,6.60
2022-10-09T01:22:29.929Z,6.00
2022-10-09T01:23:22.155Z,5.85
2022-10-09T01:24:24.850Z,6.18
2022-10-09T01:25:10.274Z,6.50
2022-10-09T01:26:16.704Z,6.53
2022-10-09T01:27:04.723Z,6.78
2022-10-09T01:27:46.425Z,6.10
2022-10-09T01:28:30.064Z,6.75
2022-10-09T01:29:13.324Z,6.57
2022-10-09T01:30:10.569Z,5.90
2022-10-09T01:30:52.388Z,6.18
2022-10-09T01:31:37.906Z,6.57
2022-10-09T01:32:23.509Z,6.07
2022-10-09T01:33:05.664Z,6.00
2022-10-09T01:33:48.477Z,5.72
2022-10-09T01:34:31.210Z,6.45
2022-10-09T01:35:15.214Z,6.15
2022-10-09T01:35:58.158Z,6.25
2022-10-09T01:36:42.115Z,6.23
2022-10-09T01:37:24.629Z,6.03
2022-10-09T01:38:07.186Z,6.18
2022-10-09T01:38:49.590Z,5.53
2022-10-09T01:39:32.264Z,6.75
2022-10-09T01:40:16.971Z,7.15
2022-10-09T01:40:58.952Z,6.40
2022-10-09T01:41:40.712Z,5.78
2022-10-09T01:42:24.402Z,5.90
2022-10-09T01:43:06.056Z,5.80
2022-10-09T01:43:47.744Z,5.53
2022-10-09T01:44:31.400Z,6.20
2022-10-09T01:45:14.881Z,6.20
2022-10-09T01:46:21.552Z,6.60
2022-10-09T01:47:04.592Z,6.05
2022-10-09T01:47:46.488Z,5.95
2022-10-09T01:48:28.560Z,5.75
2022-10-09T01:49:28.401Z,6.60
2022-10-09T01:50:31.830Z,6.15
2022-10-09T01:51:16.382Z,6.80
2022-10-09T01:52:16.048Z,6.20
2022-10-09T01:53:01.775Z,6.80
2022-10-09T01:53:44.945Z,6.32
2022-10-09T01:54:37.455Z,6.05
2022-10-09T01:55:28.052Z,6.03
2022-10-09T01:56:14.448Z,6.30
2022-10-09T01:56:57.865Z,6.50
2022-10-09T01:58:03.554Z,6.32
2022-10-09T01:58:51.372Z,6.20
2022-10-09T01:59:40.350Z,6.72
2022-10-09T02:00:22.525Z,6.55
2022-10-09T02:01:26.984Z,6.25
2022-10-09T02:02:09.916Z,6.20
2022-10-09T02:02:53.625Z,6.57
2022-10-09T02:03:38.473Z,6.78
2022-10-09T02:04:20.821Z,5.90
2022-10-09T02:05:03.120Z,6.10
2022-10-09T02:05:47.672Z,6.32
2022-10-09T02:06:31.169Z,6.30
2022-10-09T02:07:12.867Z,6.30
2022-10-09T02:07:56.561Z,6.10
2022-10-09T02:08:39.493Z,5.97
2022-10-09T02:09:22.289Z,6.07
2022-10-09T02:10:08.068Z,5.97
2022-10-09T02:10:55.024Z,6.50
2022-10-09T02:11:39.366Z,6.10
2022-10-09T02:12:22.707Z,5.68
2022-10-09T02:13:04.969Z,6.50
2022-10-09T02:13:49.713Z,5.40
2022-10-09T02:14:31.450Z,5.60
2022-10-09T02:15:13.879Z,6.05
2022-10-09T02:16:15.779Z,5.47
2022-10-09T02:17:09.830Z,6.00
2022-10-09T02:17:54.445Z,5.82
2022-10-09T02:19:10.016Z,6.30
2022-10-09T02:20:02.817Z,6.47
2022-10-09T02:20:51.772Z,5.50
2022-10-09T02:21:53.678Z,6.00
2022-10-09T02:22:36.517Z,6.10
2022-10-09T02:23:19.708Z,6.40
2022-10-09T02:24:02.904Z,6.22
2022-10-09T02:24:44.994Z,6.20
2022-10-09T02:25:26.693Z,5.90
2022-10-09T02:26:09.221Z,6.78
2022-10-09T02:26:54.201Z,6.70
2022-10-09T02:27:36.308Z,6.38
2022-10-09T02:28:18.267Z,6.40
2022-10-09T02:28:59.979Z,6.70
2022-10-09T02:29:43.568Z,6.20
2022-10-09T02:30:28.196Z,6.63
2022-10-09T02:31:29.985Z,6.40
2022-10-09T02:32:12.386Z,6.85
2022-10-09T02:32:54.401Z,6.28
2022-10-09T02:33:36.648Z,6.22
2022-10-09T02:34:19.952Z,6.20
2022-10-09T02:35:01.848Z,6.70
2022-10-09T02:35:43.980Z,5.93
2022-10-09T02:36:26.462Z,6.20
2022-10-09T02:37:08.586Z,6.60
2022-10-09T02:37:50.202Z,6.67
2022-10-09T02:38:31.990Z,7.03
2022-10-09T02:39:13.655Z,6.07
2022-10-09T02:39:55.293Z,5.72
2022-10-09T02:40:36.920Z,5.95
2022-10-09T02:41:19.476Z,6.30
2022-10-09T02:42:01.128Z,6.50
2022-10-09T02:42:42.764Z,6.22
2022-10-09T02:43:24.380Z,6.10
2022-10-09T02:44:06.882Z,6.40
2022-10-09T02:44:48.761Z,6.25
2022-10-09T02:45:30.449Z,6.00
2022-10-09T02:46:12.175Z,6.15
2022-10-09T02:46:54.062Z,6.60
2022-10-09T02:47:35.727Z,6.50
2022-10-09T02:48:17.424Z,6.50
2022-10-09T02:48:59.096Z,6.60
2022-10-09T02:49:40.784Z,6.10
2022-10-09T02:50:22.424Z,6.90
2022-10-09T02:51:04.294Z,6.13
2022-10-09T02:51:45.921Z,6.18
2022-10-09T02:52:27.545Z,6.47
2022-10-09T02:53:09.260Z,6.25
2022-10-09T02:53:54.469Z,6.50
2022-10-09T02:54:36.131Z,6.53
2022-10-09T02:55:17.752Z,6.57
2022-10-09T02:55:59.376Z,7.10
2022-10-09T02:56:41.002Z,5.97
2022-10-09T02:57:22.637Z,6.00
2022-10-09T02:58:04.665Z,6.22
2022-10-09T02:58:46.294Z,6.53
2022-10-09T02:59:27.979Z,6.22
2022-10-09T03:00:10.269Z,6.22
2022-10-09T03:00:53.723Z,6.68
2022-10-09T03:01:35.970Z,6.40
2022-10-09T03:02:17.776Z,6.50
2022-10-09T03:02:59.620Z,6.28
2022-10-09T03:03:41.622Z,6.20
2022-10-09T03:04:23.273Z,6.03
2022-10-09T03:05:05.297Z,6.60
2022-10-09T03:05:47.855Z,6.18
2022-10-09T03:06:29.507Z,6.00
2022-10-09T03:07:11.232Z,6.40
2022-10-09T03:07:53.073Z,6.00
2022-10-09T03:08:35.488Z,6.00
2022-10-09T03:09:17.195Z,5.75
2022-10-09T03:09:58.837Z,6.30
2022-10-09T03:10:41.934Z,6.20
2022-10-09T03:11:25.107Z,5.50
2022-10-09T03:12:06.726Z,6.05
2022-10-09T03:12:48.955Z,6.53
2022-10-09T03:13:31.171Z,6.90
2022-10-09T03:14:12.919Z,6.95
2022-10-09T03:14:54.613Z,6.25
2022-10-09T03:15:37.252Z,6.80
2022-10-09T03:16:21.695Z,6.40
2022-10-09T03:17:03.378Z,6.70
2022-10-09T03:17:45.039Z,6.70
2022-10-09T03:18:26.646Z,6.40
2022-10-09T03:19:08.342Z,5.50
2022-10-09T03:19:49.969Z,6.05
2022-10-09T03:20:31.617Z,6.50
2022-10-09T03:21:15.803Z,6.10
2022-10-09T03:21:57.418Z,5.90
2022-10-09T03:22:39.124Z,6.60
2022-10-09T03:23:20.737Z,6.88
2022-10-09T03:24:02.382Z,6.10
2022-10-09T03:24:44.001Z,6.15
2022-10-09T03:25:25.636Z,6.38
2022-10-09T03:26:10.522Z,7.15
2022-10-09T03:26:52.289Z,6.50
2022-10-09T03:27:34.187Z,6.10
2022-10-09T03:28:15.866Z,6.40
2022-10-09T03:28:57.582Z,6.05
2022-10-09T03:29:39.215Z,6.20
2022-10-09T03:30:20.911Z,6.05
2022-10-09T03:31:03.259Z,6.05
2022-10-09T03:31:52.473Z,5.90
2022-10-09T03:32:34.643Z,6.00
2022-10-09T03:33:16.308Z,5.80
2022-10-09T03:33:57.952Z,6.18
2022-10-09T03:34:39.689Z,5.93
2022-10-09T03:35:21.308Z,6.00
2022-10-09T03:36:04.293Z,6.40
2022-10-09T03:36:46.016Z,6.65
2022-10-09T03:37:27.668Z,6.28
2022-10-09T03:38:09.322Z,5.22
2022-10-09T03:38:51.033Z,5.70
2022-10-09T03:39:32.721Z,5.65
2022-10-09T03:40:14.419Z,6.03
2022-10-09T03:40:58.741Z,6.72
2022-10-09T03:41:40.417Z,6.05
2022-10-09T03:42:22.070Z,5.93
2022-10-09T03:43:03.702Z,6.40
2022-10-09T03:43:45.417Z,6.20
2022-10-09T03:44:27.044Z,6.18
2022-10-09T03:45:09.282Z,5.90
2022-10-09T03:45:50.922Z,6.57
2022-10-09T03:46:32.624Z,6.15
2022-10-09T03:47:14.413Z,5.80
2022-10-09T03:47:56.044Z,5.80
2022-10-09T03:48:37.732Z,5.97
2022-10-09T03:49:19.418Z,6.57
2022-10-09T03:50:01.611Z,6.40
2022-10-09T03:50:43.520Z,6.10
2022-10-09T03:51:25.135Z,6.35
2022-10-09T03:52:06.776Z,6.13
2022-10-09T03:52:48.706Z,6.40
2022-10-09T03:53:30.962Z,5.90
2022-10-09T03:54:12.629Z,5.85
2022-10-09T03:54:54.291Z,6.18
2022-10-09T03:55:36.273Z,5.78
2022-10-09T03:56:17.899Z,6.40
2022-10-09T03:56:59.624Z,5.90
2022-10-09T03:57:41.316Z,6.00
2022-10-09T03:58:23.005Z,5.90
2022-10-09T03:59:07.244Z,5.80
2022-10-09T03:59:48.914Z,6.00
2022-10-09T04:00:31.106Z,6.03
2022-10-09T04:01:12.806Z,6.45
2022-10-09T04:01:54.526Z,6.60
2022-10-09T04:02:36.977Z,6.20
2022-10-09T04:03:18.742Z,5.90
2022-10-09T04:04:00.394Z,6.00
2022-10-09T04:04:42.016Z,6.50
2022-10-09T04:05:23.876Z,6.35
2022-10-09T04:06:05.880Z,6.20
2022-10-09T04:06:47.494Z,6.25
2022-10-09T04:07:29.163Z,6.45
2022-10-09T04:08:10.821Z,6.22
2022-10-09T04:08:52.544Z,6.65
2022-10-09T04:09:34.196Z,6.03
2022-10-09T04:10:15.970Z,6.03
2022-10-09T04:11:00.740Z,6.22
2022-10-09T04:11:42.426Z,6.53
2022-10-09T04:12:24.163Z,6.40
2022-10-09T04:13:06.380Z,6.35
2022-10-09T04:13:48.045Z,7.20
2022-10-09T04:14:29.691Z,6.50
2022-10-09T04:15:11.817Z,6.15
2022-10-09T04:15:54.411Z,6.10
2022-10-09T04:16:36.205Z,7.30
2022-10-09T04:17:17.998Z,7.32
2022-10-09T04:17:59.706Z,6.53
2022-10-09T04:18:44.093Z,6.35
2022-10-09T04:19:25.718Z,6.47
2022-10-09T04:20:08.027Z,6.57
2022-10-09T04:20:51.365Z,6.03
2022-10-09T04:21:33.730Z,6.15
2022-10-09T04:22:15.378Z,6.30
2022-10-09T04:22:57.092Z,6.50
2022-10-09T04:23:39.529Z,6.28
2022-10-09T04:24:21.472Z,6.47
2022-10-09T04:25:03.368Z,6.40
2022-10-09T04:25:45.906Z,6.78
2022-10-09T04:26:27.563Z,7.30
2022-10-09T04:27:09.246Z,7.65
2022-10-09T04:27:50.896Z,6.30
2022-10-09T04:28:32.791Z,6.13
2022-10-09T04:29:14.612Z,6.15
2022-10-09T04:29:56.277Z,6.05
2022-10-09T04:30:37.974Z,6.50
2022-10-09T04:31:19.672Z,7.15
2022-10-09T04:32:01.387Z,6.38
2022-10-09T04:32:43.095Z,6.45
2022-10-09T04:33:25.952Z,6.40
2022-10-09T04:34:07.599Z,6.60
2022-10-09T04:34:49.267Z,6.70
2022-10-09T04:35:30.898Z,6.45
2022-10-09T04:36:12.544Z,5.80
2022-10-09T04:36:54.237Z,5.75
2022-10-09T04:37:36.723Z,5.90
2022-10-09T04:38:19.274Z,6.35
2022-10-09T04:39:00.929Z,6.35
2022-10-09T04:39:43.002Z,5.85
2022-10-09T04:40:24.701Z,6.47
2022-10-09T04:41:07.358Z,6.90
2022-10-09T04:41:49.054Z,6.28
2022-10-09T04:42:30.887Z,6.80
2022-10-09T04:43:12.530Z,6.75
2022-10-09T04:43:56.196Z,6.45
2022-10-09T04:44:37.890Z,6.38
2022-10-09T04:45:19.525Z,6.45
2022-10-09T04:46:06.111Z,6.40
2022-10-09T04:46:51.372Z,6.20
2022-10-09T04:47:34.115Z,6.50
2022-10-09T04:48:15.799Z,6.10
2022-10-09T04:48:57.483Z,6.18
2022-10-09T04:49:39.738Z,6.10
2022-10-09T04:50:21.460Z,6.15
2022-10-09T04:51:04.935Z,5.90
2022-10-09T04:51:46.608Z,6.32
2022-10-09T04:52:28.250Z,6.57
2022-10-09T04:53:09.942Z,6.72
2022-10-09T04:53:51.638Z,6.20
2022-10-09T04:54:33.327Z,6.32
2022-10-09T04:55:14.993Z,6.45
2022-10-09T04:55:56.650Z,6.75
2022-10-09T04:56:38.615Z,6.40
2022-10-09T04:57:21.129Z,6.78
2022-10-09T04:58:02.753Z,6.10
2022-10-09T04:58:45.673Z,6.10
2022-10-09T04:59:27.328Z,6.38
2022-10-09T05:00:09.561Z,5.97
2022-10-09T05:00:51.301Z,6.15
2022-10-09T05:01:38.049Z,6.40
2022-10-09T05:02:20.349Z,7.13
2022-10-09T05:03:02.166Z,6.88
2022-10-09T05:03:44.111Z,7.25
2022-10-09T05:04:25.768Z,6.50
2022-10-09T05:05:07.851Z,6.72
2022-10-09T05:05:49.616Z,5.90
2022-10-09T05:06:31.285Z,6.05
2022-10-09T05:07:13.161Z,5.97
2022-10-09T05:07:54.819Z,6.50
2022-10-09T05:08:37.520Z,6.15
2022-10-09T05:09:19.236Z,5.90
2022-10-09T05:10:00.867Z,6.00
2022-10-09T05:10:42.597Z,6.30
2022-10-09T05:11:25.998Z,5.97
2022-10-09T05:12:07.959Z,6.00
2022-10-09T05:12:50.093Z,6.07
2022-10-09T05:13:37.526Z,6.25
2022-10-09T05:14:19.217Z,6.53
2022-10-09T05:15:00.889Z,6.43
2022-10-09T05:15:42.532Z,6.80
2022-10-09T05:16:27.337Z,6.82
2022-10-09T05:17:13.954Z,6.65
2022-10-09T05:17:56.395Z,6.40
2022-10-09T05:18:46.025Z,6.82
2022-10-09T05:19:27.735Z,6.57
2022-10-09T05:20:09.882Z,6.80
2022-10-09T05:20:51.533Z,6.05
2022-10-09T05:21:33.210Z,6.20
2022-10-09T05:22:14.856Z,6.80
2022-10-09T05:22:56.486Z,6.25
2022-10-09T05:23:38.158Z,6.18
2022-10-09T05:24:19.856Z,6.32
2022-10-09T05:25:01.503Z,6.50
2022-10-09T05:25:43.143Z,6.53
2022-10-09T05:26:25.847Z,5.50
2022-10-09T05:27:07.589Z,6.07
2022-10-09T05:27:49.219Z,6.00
2022-10-09T05:28:30.981Z,6.55
2022-10-09T05:29:12.685Z,6.75
2022-10-09T05:29:54.301Z,6.70
2022-10-09T05:30:40.116Z,6.75
2022-10-09T05:31:27.423Z,6.60
2022-10-09T05:32:09.231Z,6.70
2022-10-09T05:32:51.335Z,5.78
2022-10-09T05:33:33.927Z,6.95
2022-10-09T05:34:15.993Z,7.00
2022-10-09T05:34:57.647Z,6.40
2022-10-09T05:35:39.296Z,5.95
2022-10-09T05:36:21.890Z,5.80
2022-10-09T05:37:03.600Z,6.35
2022-10-09T05:37:45.726Z,6.65
2022-10-09T05:38:28.235Z,6.72
2022-10-09T05:39:09.961Z,6.20
2022-10-09T05:39:51.604Z,6.70
2022-10-09T05:40:33.230Z,6.70
2022-10-09T05:41:17.595Z,6.55
2022-10-09T05:41:59.286Z,6.30
2022-10-09T05:42:40.978Z,5.70
2022-10-09T05:43:32.447Z,5.30
2022-10-09T05:44:14.076Z,6.07
2022-10-09T05:44:55.688Z,6.40
2022-10-09T05:45:37.330Z,6.32
2022-10-09T05:46:21.668Z,6.53
2022-10-09T05:47:03.364Z,7.15
2022-10-09T05:47:46.120Z,6.78
2022-10-09T05:48:27.825Z,6.10
2022-10-09T05:49:11.885Z,6.18
2022-10-09T05:49:53.550Z,6.07
2022-10-09T05:50:35.202Z,6.30
2022-10-09T05:51:22.676Z,6.47
2022-10-09T05:52:04.334Z,5.80
2022-10-09T05:52:46.160Z,6.47
2022-10-09T05:53:28.751Z,6.70
2022-10-09T05:54:15.226Z,7.50
2022-10-09T05:54:57.157Z,6.50
2022-10-09T05:55:39.003Z,6.85
2022-10-09T05:56:31.656Z,6.70
2022-10-09T05:57:13.286Z,6.43
2022-10-09T05:57:54.980Z,6.53
2022-10-09T05:58:36.636Z,6.07
2022-10-09T05:59:19.885Z,5.80
2022-10-09T06:00:01.694Z,6.40
2022-10-09T06:00:43.331Z,6.50
2022-10-09T06:01:27.818Z,6.60
2022-10-09T06:02:09.537Z,6.25
2022-10-09T06:02:51.732Z,5.85
2022-10-09T06:03:33.706Z,6.38
2022-10-09T06:04:18.112Z,6.07
2022-10-09T06:04:59.736Z,6.75
2022-10-09T06:05:41.390Z,6.63
2022-10-09T06:06:25.434Z,6.80
2022-10-09T06:07:07.069Z,6.20
2022-10-09T06:07:49.059Z,6.85
2022-10-09T06:08:35.190Z,6.50
2022-10-09T06:09:19.728Z,6.60
2022-10-09T06:10:01.382Z,6.78
2022-10-09T06:10:43.006Z,6.63
2022-10-09T06:11:28.451Z,6.75
2022-10-09T06:12:10.095Z,6.70
2022-10-09T06:12:51.923Z,6.45
2022-10-09T06:13:33.758Z,6.18
2022-10-09T06:14:15.459Z,6.10
2022-10-09T06:14:57.098Z,6.65
2022-10-09T06:15:38.734Z,6.43
2022-10-09T06:16:20.545Z,6.28
2022-10-09T06:17:02.350Z,6.30
2022-10-09T06:17:44.031Z,6.20
2022-10-09T06:18:27.254Z,6.30
2022-10-09T06:19:12.362Z,6.32
2022-10-09T06:19:54.013Z,6.90
2022-10-09T06:20:35.625Z,6.50
2022-10-09T06:21:17.620Z,6.50
2022-10-09T06:21:59.237Z,5.75
2022-10-09T06:22:40.914Z,5.63
2022-10-09T06:23:22.710Z,5.50
2022-10-09T06:24:05.853Z,6.20
2022-10-09T06:24:47.479Z,6.20
2022-10-09T06:25:29.125Z,6.80
2022-10-09T06:26:13.273Z,7.05
2022-10-09T06:26:55.025Z,6.30
2022-10-09T06:27:36.643Z,6.47
2022-10-09T06:28:18.305Z,6.30
2022-10-09T06:29:01.888Z,6.10
2022-10-09T06:29:43.510Z,6.32
2022-10-09T06:30:25.165Z,5.88
2022-10-09T06:31:12.076Z,5.80
2022-10-09T06:31:53.814Z,6.00
2022-10-09T06:32:35.554Z,6.70
2022-10-09T06:33:17.506Z,6.50
2022-10-09T06:34:01.111Z,6.45
2022-10-09T06:34:42.753Z,6.90
2022-10-09T06:35:24.382Z,6.05
2022-10-09T06:36:12.034Z,6.22
2022-10-09T06:36:53.688Z,6.55
2022-10-09T06:37:35.312Z,6.22
2022-10-09T06:38:18.075Z,6.57
2022-10-09T06:39:01.620Z,6.50
2022-10-09T06:39:43.263Z,6.05
2022-10-09T06:40:24.892Z,5.95
2022-10-09T06:41:12.222Z,6.20
2022-10-09T06:41:53.891Z,6.22
2022-10-09T06:42:35.638Z,5.95
2022-10-09T06:43:17.250Z,6.60
2022-10-09T06:44:04.290Z,5.95
2022-10-09T06:44:45.989Z,6.50
2022-10-09T06:45:27.605Z,6.35
2022-10-09T06:46:11.745Z,6.03
2022-10-09T06:46:53.396Z,5.63
2022-10-09T06:47:35.025Z,6.40
2022-10-09T06:48:16.670Z,6.45
2022-10-09T06:49:02.123Z,5.82
2022-10-09T06:49:43.764Z,6.05
2022-10-09T06:50:25.415Z,6.20
2022-10-09T06:51:09.657Z,6.57
2022-10-09T06:51:51.292Z,6.38
2022-10-09T06:52:32.934Z,6.70
2022-10-09T06:53:14.663Z,5.90
2022-10-09T06:54:00.154Z,6.30
2022-10-09T06:54:41.781Z,6.30
2022-10-09T06:55:27.946Z,6.60
2022-10-09T06:56:11.462Z,7.15
2022-10-09T06:56:55.476Z,7.20
2022-10-09T06:57:37.111Z,6.85
2022-10-09T06:58:18.790Z,7.20
2022-10-09T06:59:02.443Z,6.20
2022-10-09T06:59:44.099Z,6.50
2022-10-09T07:00:26.080Z,6.88
2022-10-09T07:01:12.758Z,6.70
2022-10-09T07:01:56.817Z,6.80
2022-10-09T07:02:43.756Z,7.45
2022-10-09T07:03:25.731Z,7.30
2022-10-09T07:04:11.629Z,7.05
2022-10-09T07:04:53.256Z,6.20
2022-10-09T07:05:34.887Z,6.43
2022-10-09T07:06:19.611Z,6.30
2022-10-09T07:07:02.754Z,6.18
2022-10-09T07:07:44.385Z,6.55
2022-10-09T07:08:26.009Z,7.20
2022-10-09T07:09:10.492Z,6.15
2022-10-09T07:09:53.452Z,5.93
2022-10-09T07:10:35.072Z,5.97
2022-10-09T07:11:21.378Z,6.10
2022-10-09T07:12:02.987Z,6.00
2022-10-09T07:12:44.609Z,6.70
2022-10-09T07:13:26.219Z,6.47
2022-10-09T07:14:09.429Z,6.10
2022-10-09T07:14:51.062Z,6.20
2022-10-09T07:15:32.895Z,5.60
2022-10-09T07:16:20.222Z,6.18
2022-10-09T07:17:02.571Z,6.10
2022-10-09T07:17:44.237Z,5.93
2022-10-09T07:18:25.881Z,5.70
2022-10-09T07:19:11.091Z,6.13
2022-10-09T07:19:52.820Z,6.22
2022-10-09T07:20:36.414Z,5.85
2022-10-09T07:21:18.121Z,6.63
2022-10-09T07:21:59.763Z,6.22
2022-10-09T07:22:41.422Z,5.97
2022-10-09T07:23:23.043Z,5.90
2022-10-09T07:24:06.262Z,6.25
2022-10-09T07:24:49.046Z,6.53
2022-10-09T07:25:30.693Z,6.22
2022-10-09T07:26:18.566Z,6.30
2022-10-09T07:27:00.260Z,6.85
2022-10-09T07:27:41.878Z,6.15
2022-10-09T07:28:24.594Z,6.38
2022-10-09T07:29:07.826Z,6.00
2022-10-09T07:29:49.636Z,6.28
2022-10-09T07:30:31.307Z,6.38
2022-10-09T07:31:14.079Z,6.10
2022-10-09T07:31:55.779Z,5.80
2022-10-09T07:32:37.452Z,6.20
2022-10-09T07:33:19.318Z,6.18
2022-10-09T07:34:01.008Z,6.32
2022-10-09T07:34:43.123Z,6.80
2022-10-09T07:35:24.848Z,6.55
2022-10-09T07:36:07.556Z,5.90
2022-10-09T07:36:49.184Z,6.18
2022-10-09T07:37:31.195Z,5.72
2022-10-09T07:38:12.813Z,5.82
2022-10-09T07:38:56.378Z,6.60
2022-10-09T07:39:41.645Z,6.03
2022-10-09T07:40:26.529Z,6.60
2022-10-09T07:41:10.667Z,6.00
2022-10-09T07:41:52.445Z,6.40
2022-10-09T07:42:34.071Z,6.88
2022-10-09T07:43:16.178Z,6.38
2022-10-09T07:43:58.378Z,6.65
2022-10-09T07:44:40.024Z,6.50
2022-10-09T07:45:21.702Z,6.00
2022-10-09T07:46:05.213Z,6.20
2022-10-09T07:46:48.975Z,6.53
2022-10-09T07:47:30.644Z,6.70
2022-10-09T07:48:12.798Z,6.10
2022-10-09T07:48:54.487Z,6.07
2022-10-09T07:49:36.138Z,5.95
2022-10-09T07:50:17.910Z,6.10
2022-10-09T07:51:21.089Z,6.70
2022-10-09T07:52:02.712Z,5.90
2022-10-09T07:52:44.367Z,6.18
2022-10-09T07:53:25.992Z,6.18
2022-10-09T07:54:07.665Z,6.50
2022-10-09T07:54:49.276Z,6.47
2022-10-09T07:55:30.958Z,6.05
2022-10-09T07:56:21.197Z,5.90
2022-10-09T07:57:02.950Z,6.60
2022-10-09T07:57:44.562Z,6.20
2022-10-09T07:58:26.190Z,5.80
2022-10-09T07:59:12.167Z,6.45
2022-10-09T07:59:55.077Z,6.40
2022-10-09T08:00:36.706Z,5.70
2022-10-09T08:01:20.572Z,5.70
2022-10-09T08:02:02.529Z,6.10
2022-10-09T08:02:44.268Z,5.70
2022-10-09T08:03:25.970Z,5.90
2022-10-09T08:04:07.961Z,5.57
2022-10-09T08:04:49.618Z,5.97
2022-10-09T08:05:31.387Z,5.80
2022-10-09T08:06:13.378Z,6.53
2022-10-09T08:06:58.249Z,5.70
2022-10-09T08:07:39.878Z,5.30
2022-10-09T08:08:21.864Z,5.60
2022-10-09T08:09:05.398Z,5.80
2022-10-09T08:09:47.009Z,5.50
2022-10-09T08:10:32.285Z,6.10
2022-10-09T08:11:16.862Z,5.47
2022-10-09T08:11:58.636Z,5.20
2022-10-09T08:12:40.267Z,5.80
2022-10-09T08:13:21.908Z,5.70
2022-10-09T08:14:03.567Z,5.95
2022-10-09T08:14:46.948Z,5.00
2022-10-09T08:15:28.663Z,4.88
2022-10-09T08:16:10.981Z,4.80
2022-10-09T08:16:52.706Z,5.30
2022-10-09T08:17:34.394Z,5.30
2022-10-09T08:18:16.107Z,4.75
2022-10-09T08:18:59.889Z,5.85
2022-10-09T08:19:41.581Z,5.63
2022-10-09T08:20:23.243Z,5.00
2022-10-09T08:21:11.324Z,4.72
2022-10-09T08:21:52.965Z,5.18
2022-10-09T08:22:34.645Z,5.20
2022-10-09T08:23:16.335Z,5.20
2022-10-09T08:23:59.513Z,5.10
2022-10-09T08:24:41.276Z,5.10
2022-10-09T08:25:22.905Z,5.80
2022-10-09T08:26:11.954Z,4.75
2022-10-09T08:26:53.586Z,4.40
2022-10-09T08:27:35.250Z,5.38
2022-10-09T08:28:16.943Z,5.47
2022-10-09T08:29:03.213Z,4.95
2022-10-09T08:29:44.820Z,4.75
2022-10-09T08:30:26.918Z,5.40
2022-10-09T08:31:16.705Z,4.93
2022-10-09T08:31:58.392Z,4.47
2022-10-09T08:32:40.909Z,5.30
2022-10-09T08:33:23.404Z,4.63
2022-10-09T08:34:05.370Z,4.50
2022-10-09T08:34:47.463Z,4.45
2022-10-09T08:35:33.670Z,4.20
2022-10-09T08:36:16.215Z,5.00
2022-10-09T08:36:57.904Z,5.72
2022-10-09T08:37:39.885Z,4.97
2022-10-09T08:38:45.497Z,4.60
2022-10-09T08:39:23.320Z,4.95
2022-10-09T08:40:06.990Z,5.00
2022-10-09T08:41:01.098Z,4.60
2022-10-09T08:41:42.686Z,4.05
2022-10-09T08:42:42.891Z,4.45
2022-10-09T08:43:31.855Z,4.50
2022-10-09T08:44:24.352Z,5.00
2022-10-09T08:45:11.477Z,4.60
2022-10-09T08:45:53.401Z,5.00
2022-10-09T08:46:43.957Z,4.70
2022-10-09T08:47:40.353Z,4.63
2022-10-09T08:48:25.101Z,5.15
2022-10-09T08:49:11.800Z,4.82
2022-10-09T08:50:18.499Z,5.20
2022-10-09T08:51:01.558Z,4.50
2022-10-09T08:51:46.230Z,4.80
2022-10-09T08:52:56.964Z,5.07
2022-10-09T08:53:47.057Z,5.68
2022-10-09T08:54:39.601Z,4.88
2022-10-09T08:55:27.945Z,4.80
2022-10-09T08:56:14.245Z,4.93
2022-10-09T08:56:55.919Z,4.37
2022-10-09T08:57:38.872Z,4.13
2022-10-09T08:58:22.774Z,4.78
2022-10-09T08:59:04.482Z,4.32
2022-10-09T08:59:46.201Z,4.35
2022-10-09T09:00:52.426Z,4.25
2022-10-09T09:01:49.912Z,4.18
2022-10-09T09:02:37.149Z,4.30
2022-10-09T09:03:43.625Z,4.25
2022-10-09T09:04:40.138Z,4.90
2022-10-09T09:05:43.359Z,4.10
2022-10-09T09:06:25.038Z,4.65
2022-10-09T09:07:24.235Z,3.83
2022-10-09T09:08:21.493Z,4.00
2022-10-09T09:09:22.258Z,4.30
2022-10-09T09:10:42.488Z,4.32
2022-10-09T09:11:37.526Z,4.30
2022-10-09T09:12:55.101Z,4.30
2022-10-09T09:13:45.505Z,4.30
2022-10-09T09:15:04.031Z,4.25
2022-10-09T09:16:33.491Z,4.40
2022-10-09T09:17:33.971Z,3.90
2022-10-09T09:18:27.624Z,4.20
2022-10-09T09:19:36.745Z,4.13
2022-10-09T09:20:38.744Z,3.92
2022-10-09T09:21:39.932Z,3.60
2022-10-09T09:22:23.861Z,3.90
2022-10-09T09:23:13.293Z,4.10
2022-10-09T09:23:59.101Z,4.20
2022-10-09T09:24:43.150Z,4.30
2022-10-09T09:25:35.933Z,4.10
2022-10-09T09:26:19.848Z,3.67
2022-10-09T09:27:10.335Z,4.03
2022-10-09T09:27:54.118Z,3.80
2022-10-09T09:28:36.634Z,3.70
2022-10-09T09:29:23.163Z,4.20
2022-10-09T09:30:13.732Z,3.80
2022-10-09T09:31:17.523Z,4.20
2022-10-09T09:32:01.079Z,3.72
2022-10-09T09:32:49.735Z,3.80
2022-10-09T09:33:49.865Z,3.97
2022-10-09T09:34:38.952Z,4.10
2022-10-09T09:35:28.308Z,4.43
2022-10-09T09:36:17.952Z,4.03
2022-10-09T09:36:59.680Z,3.80
2022-10-09T09:37:41.453Z,4.00
2022-10-09T09:38:23.183Z,3.85
2022-10-09T09:40:36.245Z,3.92
2022-10-09T09:41:19.230Z,3.72
2022-10-09T09:42:09.857Z,3.92
2022-10-09T09:42:56.601Z,3.80
2022-10-09T09:43:38.490Z,3.50
2022-10-09T09:44:20.705Z,3.55
2022-10-09T09:45:05.674Z,3.95
2022-10-09T09:45:48.929Z,3.95
2022-10-09T09:46:32.537Z,3.83
2022-10-09T09:47:30.108Z,3.50
2022-10-09T09:48:20.915Z,3.80
2022-10-09T09:49:07.059Z,3.45
2022-10-09T09:49:59.451Z,3.80
2022-10-09T09:50:50.470Z,3.85
2022-10-09T09:51:36.286Z,3.40
2022-10-09T09:52:19.117Z,3.58
2022-10-09T09:53:23.254Z,3.08